sensor_id;sensor_type;location;lat;lon;timestamp;temperature;humidity
30648;DHT22;17683;53.360;9.736;2022-12-24T00:01:56;5.60;99.90
30648;DHT22;17683;53.360;9.736;2022-12-24T00:04:22;5.60;99.90
30648;DHT22;17683;53.360;9.736;2022-12-24T00:06:47;5.60;99.90
30648;DHT22;17683;53.360;9.736;2022-12-24T00:09:13;5.60;99.90
30648;DHT22;17683;53.360;9.736;2022-12-24T00:11:39;5.60;99.90
30648;DHT22;17683;53.360;9.736;2022-12-24T00:14:04;5.60;99.90
30648;DHT22;17683;53.360;9.736;2022-12-24T00:16:30;5.60;99.90
30648;DHT22;17683;53.360;9.736;2022-12-24T00:18:56;5.60;99.90
30648;DHT22;17683;53.360;9.736;2022-12-24T00:21:22;5.60;99.90
30648;DHT22;17683;53.360;9.736;2022-12-24T00:23:47;5.60;99.90
30648;DHT22;17683;53.360;9.736;2022-12-24T00:26:13;5.60;99.90
30648;DHT22;17683;53.360;9.736;2022-12-24T00:28:39;5.60;99.90
30648;DHT22;17683;53.360;9.736;2022-12-24T00:31:14;5.60;99.90
30648;DHT22;17683;53.360;9.736;2022-12-24T00:33:40;5.60;99.90
30648;DHT22;17683;53.360;9.736;2022-12-24T00:36:07;5.60;99.90
30648;DHT22;17683;53.360;9.736;2022-12-24T00:38:34;5.60;99.90
30648;DHT22;17683;53.360;9.736;2022-12-24T00:41:01;5.60;99.90
30648;DHT22;17683;53.360;9.736;2022-12-24T00:43:29;5.60;99.90
30648;DHT22;17683;53.360;9.736;2022-12-24T00:45:55;5.60;99.90
30648;DHT22;17683;53.360;9.736;2022-12-24T00:48:21;5.60;99.90
30648;DHT22;17683;53.360;9.736;2022-12-24T00:50:48;5.60;99.90
30648;DHT22;17683;53.360;9.736;2022-12-24T00:53:14;5.60;99.90
30648;DHT22;17683;53.360;9.736;2022-12-24T00:55:40;5.50;99.90
30648;DHT22;17683;53.360;9.736;2022-12-24T00:58:06;5.60;99.90
30648;DHT22;17683;53.360;9.736;2022-12-24T01:00:32;5.60;99.90
30648;DHT22;17683;53.360;9.736;2022-12-24T01:02:57;5.60;99.90
30648;DHT22;17683;53.360;9.736;2022-12-24T01:05:23;5.60;99.90
30648;DHT22;17683;53.360;9.736;2022-12-24T01:07:49;5.60;99.90
30648;DHT22;17683;53.360;9.736;2022-12-24T01:10:17;5.60;99.90
30648;DHT22;17683;53.360;9.736;2022-12-24T01:12:44;5.60;99.90
30648;DHT22;17683;53.360;9.736;2022-12-24T01:15:12;5.60;99.90
30648;DHT22;17683;53.360;9.736;2022-12-24T01:17:38;5.60;99.90
30648;DHT22;17683;53.360;9.736;2022-12-24T01:20:06;5.60;99.90
30648;DHT22;17683;53.360;9.736;2022-12-24T01:22:32;5.60;99.90
30648;DHT22;17683;53.360;9.736;2022-12-24T01:24:58;5.60;99.90
30648;DHT22;17683;53.360;9.736;2022-12-24T01:27:24;5.60;99.90
30648;DHT22;17683;53.360;9.736;2022-12-24T01:29:49;5.60;99.90
30648;DHT22;17683;53.360;9.736;2022-12-24T01:32:15;5.60;99.90
30648;DHT22;17683;53.360;9.736;2022-12-24T01:34:41;5.60;99.90
30648;DHT22;17683;53.360;9.736;2022-12-24T01:37:07;5.60;99.90
30648;DHT22;17683;53.360;9.736;2022-12-24T01:39:33;5.60;99.90
30648;DHT22;17683;53.360;9.736;2022-12-24T01:41:58;5.50;99.90
30648;DHT22;17683;53.360;9.736;2022-12-24T01:44:46;5.50;99.90
30648;DHT22;17683;53.360;9.736;2022-12-24T01:47:22;5.50;99.90
30648;DHT22;17683;53.360;9.736;2022-12-24T01:49:58;5.60;99.90
30648;DHT22;17683;53.360;9.736;2022-12-24T01:52:33;5.50;99.90
30648;DHT22;17683;53.360;9.736;2022-12-24T01:55:07;5.50;99.90
30648;DHT22;17683;53.360;9.736;2022-12-24T01:57:39;5.50;99.90
30648;DHT22;17683;53.360;9.736;2022-12-24T02:00:12;5.50;99.90
30648;DHT22;17683;53.360;9.736;2022-12-24T02:02:40;5.50;99.90
30648;DHT22;17683;53.360;9.736;2022-12-24T02:05:11;5.50;99.90
30648;DHT22;17683;53.360;9.736;2022-12-24T02:07:40;5.50;99.90
30648;DHT22;17683;53.360;9.736;2022-12-24T02:10:08;5.40;99.90
30648;DHT22;17683;53.360;9.736;2022-12-24T02:12:35;5.50;99.90
30648;DHT22;17683;53.360;9.736;2022-12-24T02:15:03;5.50;99.90
30648;DHT22;17683;53.360;9.736;2022-12-24T02:20:26;5.50;99.90
30648;DHT22;17683;53.360;9.736;2022-12-24T02:23:17;5.40;99.90
30648;DHT22;17683;53.360;9.736;2022-12-24T02:31:09;5.40;99.90
30648;DHT22;17683;53.360;9.736;2022-12-24T02:33:48;5.40;99.90
30648;DHT22;17683;53.360;9.736;2022-12-24T02:36:19;5.40;99.90
30648;DHT22;17683;53.360;9.736;2022-12-24T02:38:57;5.40;99.90
30648;DHT22;17683;53.360;9.736;2022-12-24T02:41:34;5.40;99.90
30648;DHT22;17683;53.360;9.736;2022-12-24T02:44:22;5.50;99.90
30648;DHT22;17683;53.360;9.736;2022-12-24T02:46:49;5.50;99.90
30648;DHT22;17683;53.360;9.736;2022-12-24T02:49:15;5.50;99.90
30648;DHT22;17683;53.360;9.736;2022-12-24T02:51:41;5.50;99.90
30648;DHT22;17683;53.360;9.736;2022-12-24T02:54:07;5.50;99.90
30648;DHT22;17683;53.360;9.736;2022-12-24T03:05:10;5.50;99.90
30648;DHT22;17683;53.360;9.736;2022-12-24T03:07:45;5.40;99.90
30648;DHT22;17683;53.360;9.736;2022-12-24T03:12:51;5.50;99.90
30648;DHT22;17683;53.360;9.736;2022-12-24T03:15:20;5.40;99.90
30648;DHT22;17683;53.360;9.736;2022-12-24T03:17:48;5.50;99.90
30648;DHT22;17683;53.360;9.736;2022-12-24T03:20:19;5.40;99.90
30648;DHT22;17683;53.360;9.736;2022-12-24T03:22:46;5.40;99.90
30648;DHT22;17683;53.360;9.736;2022-12-24T03:25:12;5.40;99.90
30648;DHT22;17683;53.360;9.736;2022-12-24T03:27:38;5.40;99.90
30648;DHT22;17683;53.360;9.736;2022-12-24T03:30:10;5.40;99.90
30648;DHT22;17683;53.360;9.736;2022-12-24T03:32:37;5.40;99.90
30648;DHT22;17683;53.360;9.736;2022-12-24T03:35:03;5.40;99.90
30648;DHT22;17683;53.360;9.736;2022-12-24T03:37:29;5.40;99.90
30648;DHT22;17683;53.360;9.736;2022-12-24T03:39:55;5.40;99.90
30648;DHT22;17683;53.360;9.736;2022-12-24T03:42:20;5.40;99.90
30648;DHT22;17683;53.360;9.736;2022-12-24T03:44:46;5.40;99.90
30648;DHT22;17683;53.360;9.736;2022-12-24T03:47:12;5.40;99.90
30648;DHT22;17683;53.360;9.736;2022-12-24T03:49:37;5.40;99.90
30648;DHT22;17683;53.360;9.736;2022-12-24T03:52:03;5.40;99.90
30648;DHT22;17683;53.360;9.736;2022-12-24T03:54:29;5.40;99.90
30648;DHT22;17683;53.360;9.736;2022-12-24T03:56:55;5.40;99.90
30648;DHT22;17683;53.360;9.736;2022-12-24T03:59:20;5.40;99.90
30648;DHT22;17683;53.360;9.736;2022-12-24T04:01:46;5.40;99.90
30648;DHT22;17683;53.360;9.736;2022-12-24T04:04:12;5.40;99.90
30648;DHT22;17683;53.360;9.736;2022-12-24T04:06:37;5.40;99.90
30648;DHT22;17683;53.360;9.736;2022-12-24T04:09:03;5.40;99.90
30648;DHT22;17683;53.360;9.736;2022-12-24T04:11:30;5.40;99.90
30648;DHT22;17683;53.360;9.736;2022-12-24T04:13:56;5.40;99.90
30648;DHT22;17683;53.360;9.736;2022-12-24T04:16:22;5.40;99.90
30648;DHT22;17683;53.360;9.736;2022-12-24T04:18:48;5.40;99.90
30648;DHT22;17683;53.360;9.736;2022-12-24T04:21:14;5.40;99.90
30648;DHT22;17683;53.360;9.736;2022-12-24T04:23:41;5.40;99.90
30648;DHT22;17683;53.360;9.736;2022-12-24T04:26:09;5.40;99.90
30648;DHT22;17683;53.360;9.736;2022-12-24T04:28:37;5.40;99.90
30648;DHT22;17683;53.360;9.736;2022-12-24T04:31:06;5.40;99.90
30648;DHT22;17683;53.360;9.736;2022-12-24T04:33:32;5.40;99.90
30648;DHT22;17683;53.360;9.736;2022-12-24T04:36:00;5.40;99.90
30648;DHT22;17683;53.360;9.736;2022-12-24T04:38:26;5.40;99.90
30648;DHT22;17683;53.360;9.736;2022-12-24T04:41:07;5.40;99.90
30648;DHT22;17683;53.360;9.736;2022-12-24T04:43:33;5.40;99.90
30648;DHT22;17683;53.360;9.736;2022-12-24T04:46:10;5.40;99.90
30648;DHT22;17683;53.360;9.736;2022-12-24T04:48:37;5.40;99.90
30648;DHT22;17683;53.360;9.736;2022-12-24T04:51:04;5.40;99.90
30648;DHT22;17683;53.360;9.736;2022-12-24T04:53:31;5.40;99.90
30648;DHT22;17683;53.360;9.736;2022-12-24T04:55:57;5.40;99.90
30648;DHT22;17683;53.360;9.736;2022-12-24T04:58:23;5.40;99.90
30648;DHT22;17683;53.360;9.736;2022-12-24T05:00:49;5.40;99.90
30648;DHT22;17683;53.360;9.736;2022-12-24T05:03:14;5.30;99.90
30648;DHT22;17683;53.360;9.736;2022-12-24T05:05:40;5.30;99.90
30648;DHT22;17683;53.360;9.736;2022-12-24T05:08:06;5.30;99.90
30648;DHT22;17683;53.360;9.736;2022-12-24T05:10:31;5.30;99.90
30648;DHT22;17683;53.360;9.736;2022-12-24T05:12:57;5.30;99.90
30648;DHT22;17683;53.360;9.736;2022-12-24T05:15:23;5.30;99.90
30648;DHT22;17683;53.360;9.736;2022-12-24T05:17:49;5.30;99.90
30648;DHT22;17683;53.360;9.736;2022-12-24T05:20:15;5.40;99.90
30648;DHT22;17683;53.360;9.736;2022-12-24T05:22:40;5.40;99.90
30648;DHT22;17683;53.360;9.736;2022-12-24T05:25:35;5.40;99.90
30648;DHT22;17683;53.360;9.736;2022-12-24T05:28:21;5.30;99.90
30648;DHT22;17683;53.360;9.736;2022-12-24T05:30:46;5.40;99.90
30648;DHT22;17683;53.360;9.736;2022-12-24T05:33:12;5.40;99.90
30648;DHT22;17683;53.360;9.736;2022-12-24T05:35:38;5.40;99.90
30648;DHT22;17683;53.360;9.736;2022-12-24T05:38:03;5.40;99.90
30648;DHT22;17683;53.360;9.736;2022-12-24T05:40:29;5.40;99.90
30648;DHT22;17683;53.360;9.736;2022-12-24T05:42:54;5.40;99.90
30648;DHT22;17683;53.360;9.736;2022-12-24T05:45:20;5.40;99.90
30648;DHT22;17683;53.360;9.736;2022-12-24T05:47:46;5.40;99.90
30648;DHT22;17683;53.360;9.736;2022-12-24T05:50:11;5.40;99.90
30648;DHT22;17683;53.360;9.736;2022-12-24T05:52:37;5.40;99.90
30648;DHT22;17683;53.360;9.736;2022-12-24T05:55:03;5.40;99.90
30648;DHT22;17683;53.360;9.736;2022-12-24T05:57:29;5.40;99.90
30648;DHT22;17683;53.360;9.736;2022-12-24T05:59:55;5.40;99.90
30648;DHT22;17683;53.360;9.736;2022-12-24T06:02:20;5.40;99.90
30648;DHT22;17683;53.360;9.736;2022-12-24T06:04:46;5.40;99.90
30648;DHT22;17683;53.360;9.736;2022-12-24T06:07:12;5.40;99.90
30648;DHT22;17683;53.360;9.736;2022-12-24T06:09:37;5.40;99.90
30648;DHT22;17683;53.360;9.736;2022-12-24T06:12:03;5.40;99.90
30648;DHT22;17683;53.360;9.736;2022-12-24T06:14:29;5.40;99.90
30648;DHT22;17683;53.360;9.736;2022-12-24T06:16:55;5.40;99.90
30648;DHT22;17683;53.360;9.736;2022-12-24T06:19:20;5.40;99.90
30648;DHT22;17683;53.360;9.736;2022-12-24T06:21:46;5.30;99.90
30648;DHT22;17683;53.360;9.736;2022-12-24T06:24:12;5.30;99.90
30648;DHT22;17683;53.360;9.736;2022-12-24T06:26:37;5.40;99.90
30648;DHT22;17683;53.360;9.736;2022-12-24T06:29:03;5.30;99.90
30648;DHT22;17683;53.360;9.736;2022-12-24T06:31:29;5.30;99.90
30648;DHT22;17683;53.360;9.736;2022-12-24T06:33:54;5.30;99.90
30648;DHT22;17683;53.360;9.736;2022-12-24T06:36:22;5.40;99.90
30648;DHT22;17683;53.360;9.736;2022-12-24T06:38:49;5.40;99.90
30648;DHT22;17683;53.360;9.736;2022-12-24T06:41:16;5.40;99.90
30648;DHT22;17683;53.360;9.736;2022-12-24T06:43:47;5.40;99.90
30648;DHT22;17683;53.360;9.736;2022-12-24T06:46:13;5.40;99.90
30648;DHT22;17683;53.360;9.736;2022-12-24T06:48:39;5.40;99.90
30648;DHT22;17683;53.360;9.736;2022-12-24T06:51:05;5.40;99.90
30648;DHT22;17683;53.360;9.736;2022-12-24T06:53:31;5.40;99.90
30648;DHT22;17683;53.360;9.736;2022-12-24T06:56:05;5.30;99.90
30648;DHT22;17683;53.360;9.736;2022-12-24T06:58:32;5.30;99.90
30648;DHT22;17683;53.360;9.736;2022-12-24T07:01:00;5.30;99.90
30648;DHT22;17683;53.360;9.736;2022-12-24T07:03:27;5.30;99.90
30648;DHT22;17683;53.360;9.736;2022-12-24T07:05:53;5.30;99.90
30648;DHT22;17683;53.360;9.736;2022-12-24T07:08:19;5.30;99.90
30648;DHT22;17683;53.360;9.736;2022-12-24T07:10:44;5.40;99.90
30648;DHT22;17683;53.360;9.736;2022-12-24T07:13:10;5.40;99.90
30648;DHT22;17683;53.360;9.736;2022-12-24T07:15:36;5.40;99.90
30648;DHT22;17683;53.360;9.736;2022-12-24T07:18:01;5.40;99.90
30648;DHT22;17683;53.360;9.736;2022-12-24T07:20:27;5.40;99.90
30648;DHT22;17683;53.360;9.736;2022-12-24T07:22:53;5.40;99.90
30648;DHT22;17683;53.360;9.736;2022-12-24T07:25:18;5.40;99.90
30648;DHT22;17683;53.360;9.736;2022-12-24T07:27:44;5.40;99.90
30648;DHT22;17683;53.360;9.736;2022-12-24T07:30:10;5.40;99.90
30648;DHT22;17683;53.360;9.736;2022-12-24T07:32:36;5.40;99.90
30648;DHT22;17683;53.360;9.736;2022-12-24T07:35:02;5.40;99.90
30648;DHT22;17683;53.360;9.736;2022-12-24T07:37:27;5.40;99.90
30648;DHT22;17683;53.360;9.736;2022-12-24T07:39:53;5.40;99.90
30648;DHT22;17683;53.360;9.736;2022-12-24T07:42:19;5.40;99.90
30648;DHT22;17683;53.360;9.736;2022-12-24T07:44:45;5.30;99.90
30648;DHT22;17683;53.360;9.736;2022-12-24T07:47:11;5.30;99.90
30648;DHT22;17683;53.360;9.736;2022-12-24T07:49:36;5.40;99.90
30648;DHT22;17683;53.360;9.736;2022-12-24T07:52:02;5.30;99.90
30648;DHT22;17683;53.360;9.736;2022-12-24T07:54:28;5.40;99.90
30648;DHT22;17683;53.360;9.736;2022-12-24T07:56:54;5.40;99.90
30648;DHT22;17683;53.360;9.736;2022-12-24T07:59:20;5.40;99.90
30648;DHT22;17683;53.360;9.736;2022-12-24T08:01:46;5.40;99.90
30648;DHT22;17683;53.360;9.736;2022-12-24T08:04:12;5.40;99.90
30648;DHT22;17683;53.360;9.736;2022-12-24T08:06:38;5.40;99.90
30648;DHT22;17683;53.360;9.736;2022-12-24T08:09:03;5.40;99.90
30648;DHT22;17683;53.360;9.736;2022-12-24T08:11:29;5.40;99.90
30648;DHT22;17683;53.360;9.736;2022-12-24T08:13:55;5.40;99.90
30648;DHT22;17683;53.360;9.736;2022-12-24T08:16:21;5.40;99.90
30648;DHT22;17683;53.360;9.736;2022-12-24T08:18:47;5.40;99.90
30648;DHT22;17683;53.360;9.736;2022-12-24T08:21:12;5.50;99.90
30648;DHT22;17683;53.360;9.736;2022-12-24T08:23:38;5.50;99.90
30648;DHT22;17683;53.360;9.736;2022-12-24T08:26:09;5.50;99.90
30648;DHT22;17683;53.360;9.736;2022-12-24T08:28:35;5.50;99.90
30648;DHT22;17683;53.360;9.736;2022-12-24T08:31:01;5.50;99.90
30648;DHT22;17683;53.360;9.736;2022-12-24T08:33:27;5.50;99.90
30648;DHT22;17683;53.360;9.736;2022-12-24T08:35:54;5.60;99.90
30648;DHT22;17683;53.360;9.736;2022-12-24T08:38:20;5.60;99.90
30648;DHT22;17683;53.360;9.736;2022-12-24T08:40:47;5.50;99.90
30648;DHT22;17683;53.360;9.736;2022-12-24T08:43:15;5.50;99.90
30648;DHT22;17683;53.360;9.736;2022-12-24T08:45:41;5.60;99.90
30648;DHT22;17683;53.360;9.736;2022-12-24T08:48:08;5.60;99.90
30648;DHT22;17683;53.360;9.736;2022-12-24T08:50:34;5.60;99.90
30648;DHT22;17683;53.360;9.736;2022-12-24T08:53:00;5.60;99.90
30648;DHT22;17683;53.360;9.736;2022-12-24T08:55:26;5.60;99.90
30648;DHT22;17683;53.360;9.736;2022-12-24T08:57:51;5.60;99.90
30648;DHT22;17683;53.360;9.736;2022-12-24T09:00:17;5.60;99.90
30648;DHT22;17683;53.360;9.736;2022-12-24T09:02:43;5.60;99.90
30648;DHT22;17683;53.360;9.736;2022-12-24T09:05:09;5.60;99.90
30648;DHT22;17683;53.360;9.736;2022-12-24T09:07:35;5.60;99.90
30648;DHT22;17683;53.360;9.736;2022-12-24T09:10:01;5.60;99.90
30648;DHT22;17683;53.360;9.736;2022-12-24T09:12:28;5.70;99.90
30648;DHT22;17683;53.360;9.736;2022-12-24T09:14:54;5.70;99.90
30648;DHT22;17683;53.360;9.736;2022-12-24T09:17:20;5.70;99.90
30648;DHT22;17683;53.360;9.736;2022-12-24T09:19:46;5.70;99.90
30648;DHT22;17683;53.360;9.736;2022-12-24T09:22:12;5.70;99.90
30648;DHT22;17683;53.360;9.736;2022-12-24T09:24:38;5.70;99.90
30648;DHT22;17683;53.360;9.736;2022-12-24T09:27:04;5.80;99.90
30648;DHT22;17683;53.360;9.736;2022-12-24T09:29:30;5.80;99.90
30648;DHT22;17683;53.360;9.736;2022-12-24T09:31:56;5.80;99.90
30648;DHT22;17683;53.360;9.736;2022-12-24T09:34:22;5.80;99.90
30648;DHT22;17683;53.360;9.736;2022-12-24T09:36:48;5.80;99.90
30648;DHT22;17683;53.360;9.736;2022-12-24T09:39:14;5.80;99.90
30648;DHT22;17683;53.360;9.736;2022-12-24T09:47:13;5.90;99.90
30648;DHT22;17683;53.360;9.736;2022-12-24T09:49:43;6.00;99.90
30648;DHT22;17683;53.360;9.736;2022-12-24T09:52:13;6.00;99.90
30648;DHT22;17683;53.360;9.736;2022-12-24T09:54:43;6.00;99.90
30648;DHT22;17683;53.360;9.736;2022-12-24T09:57:34;6.10;99.90
30648;DHT22;17683;53.360;9.736;2022-12-24T10:00:02;6.10;99.90
30648;DHT22;17683;53.360;9.736;2022-12-24T10:02:28;6.10;99.90
30648;DHT22;17683;53.360;9.736;2022-12-24T10:04:54;6.20;99.90
30648;DHT22;17683;53.360;9.736;2022-12-24T10:10:23;6.30;99.90
30648;DHT22;17683;53.360;9.736;2022-12-24T10:13:01;6.30;99.90
30648;DHT22;17683;53.360;9.736;2022-12-24T10:18:16;6.40;99.90
30648;DHT22;17683;53.360;9.736;2022-12-24T10:23:34;6.60;99.90
30648;DHT22;17683;53.360;9.736;2022-12-24T10:26:36;6.70;99.90
30648;DHT22;17683;53.360;9.736;2022-12-24T10:29:15;6.70;99.90
30648;DHT22;17683;53.360;9.736;2022-12-24T10:32:00;6.80;99.90
30648;DHT22;17683;53.360;9.736;2022-12-24T10:34:31;6.90;99.90
30648;DHT22;17683;53.360;9.736;2022-12-24T10:36:58;7.00;99.90
30648;DHT22;17683;53.360;9.736;2022-12-24T10:39:25;7.10;99.90
30648;DHT22;17683;53.360;9.736;2022-12-24T10:41:54;7.30;99.90
30648;DHT22;17683;53.360;9.736;2022-12-24T10:44:28;7.40;99.90
30648;DHT22;17683;53.360;9.736;2022-12-24T10:46:54;7.50;99.90
30648;DHT22;17683;53.360;9.736;2022-12-24T10:49:46;7.60;99.90
30648;DHT22;17683;53.360;9.736;2022-12-24T10:52:16;7.80;99.90
30648;DHT22;17683;53.360;9.736;2022-12-24T10:55:07;7.80;99.90
30648;DHT22;17683;53.360;9.736;2022-12-24T10:57:34;8.00;99.90
30648;DHT22;17683;53.360;9.736;2022-12-24T11:00:00;8.00;99.90
30648;DHT22;17683;53.360;9.736;2022-12-24T11:02:38;8.10;99.90
30648;DHT22;17683;53.360;9.736;2022-12-24T11:05:09;8.10;99.90
30648;DHT22;17683;53.360;9.736;2022-12-24T11:08:02;8.10;99.90
30648;DHT22;17683;53.360;9.736;2022-12-24T11:10:29;8.10;99.90
30648;DHT22;17683;53.360;9.736;2022-12-24T11:12:56;8.10;99.90
30648;DHT22;17683;53.360;9.736;2022-12-24T11:15:29;8.20;99.90
30648;DHT22;17683;53.360;9.736;2022-12-24T11:18:01;8.20;99.90
30648;DHT22;17683;53.360;9.736;2022-12-24T11:20:32;8.30;99.90
30648;DHT22;17683;53.360;9.736;2022-12-24T11:22:59;8.30;99.90
30648;DHT22;17683;53.360;9.736;2022-12-24T11:25:31;8.40;99.90
30648;DHT22;17683;53.360;9.736;2022-12-24T11:28:24;8.40;99.90
30648;DHT22;17683;53.360;9.736;2022-12-24T11:31:05;8.40;99.90
30648;DHT22;17683;53.360;9.736;2022-12-24T11:33:32;8.40;99.90
30648;DHT22;17683;53.360;9.736;2022-12-24T11:36:11;8.40;99.90
30648;DHT22;17683;53.360;9.736;2022-12-24T11:38:37;8.40;99.90
30648;DHT22;17683;53.360;9.736;2022-12-24T11:41:09;8.40;99.90
30648;DHT22;17683;53.360;9.736;2022-12-24T11:43:46;8.40;99.90
30648;DHT22;17683;53.360;9.736;2022-12-24T11:46:16;8.40;99.90
30648;DHT22;17683;53.360;9.736;2022-12-24T11:48:42;8.40;99.90
30648;DHT22;17683;53.360;9.736;2022-12-24T11:51:22;8.40;99.90
30648;DHT22;17683;53.360;9.736;2022-12-24T11:54:13;8.40;99.90
30648;DHT22;17683;53.360;9.736;2022-12-24T11:56:50;8.30;99.90
30648;DHT22;17683;53.360;9.736;2022-12-24T11:59:42;8.30;99.90
30648;DHT22;17683;53.360;9.736;2022-12-24T12:04:42;8.30;99.90
30648;DHT22;17683;53.360;9.736;2022-12-24T12:07:25;8.30;99.90
30648;DHT22;17683;53.360;9.736;2022-12-24T12:10:18;8.40;99.90
30648;DHT22;17683;53.360;9.736;2022-12-24T12:12:59;8.40;99.90
30648;DHT22;17683;53.360;9.736;2022-12-24T12:15:38;8.40;99.90
30648;DHT22;17683;53.360;9.736;2022-12-24T12:20:47;8.50;99.90
30648;DHT22;17683;53.360;9.736;2022-12-24T12:23:25;8.60;99.90
30648;DHT22;17683;53.360;9.736;2022-12-24T12:28:44;8.50;99.90
30648;DHT22;17683;53.360;9.736;2022-12-24T12:33:45;8.50;99.90
30648;DHT22;17683;53.360;9.736;2022-12-24T12:36:17;8.60;99.90
30648;DHT22;17683;53.360;9.736;2022-12-24T12:38:43;8.60;99.90
30648;DHT22;17683;53.360;9.736;2022-12-24T12:41:22;8.60;99.90
30648;DHT22;17683;53.360;9.736;2022-12-24T12:46:30;8.70;99.90
30648;DHT22;17683;53.360;9.736;2022-12-24T12:57:34;8.70;99.90
30648;DHT22;17683;53.360;9.736;2022-12-24T13:00:05;8.60;99.90
30648;DHT22;17683;53.360;9.736;2022-12-24T13:13:06;8.70;99.90
30648;DHT22;17683;53.360;9.736;2022-12-24T13:21:22;8.70;99.90
30648;DHT22;17683;53.360;9.736;2022-12-24T13:23:49;8.70;99.90
30648;DHT22;17683;53.360;9.736;2022-12-24T13:26:16;8.60;99.90
30648;DHT22;17683;53.360;9.736;2022-12-24T13:28:43;8.60;99.90
30648;DHT22;17683;53.360;9.736;2022-12-24T13:33:52;8.60;99.90
30648;DHT22;17683;53.360;9.736;2022-12-24T13:36:19;8.60;99.90
30648;DHT22;17683;53.360;9.736;2022-12-24T13:38:55;8.60;99.90
30648;DHT22;17683;53.360;9.736;2022-12-24T13:44:17;8.60;99.90
30648;DHT22;17683;53.360;9.736;2022-12-24T13:46:58;8.60;99.90
30648;DHT22;17683;53.360;9.736;2022-12-24T13:49:41;8.60;99.90
30648;DHT22;17683;53.360;9.736;2022-12-24T13:52:28;8.60;99.90
30648;DHT22;17683;53.360;9.736;2022-12-24T13:57:39;8.60;99.90
30648;DHT22;17683;53.360;9.736;2022-12-24T14:08:06;8.50;99.90
30648;DHT22;17683;53.360;9.736;2022-12-24T14:10:55;8.40;99.90
30648;DHT22;17683;53.360;9.736;2022-12-24T14:18:38;8.30;99.90
30648;DHT22;17683;53.360;9.736;2022-12-24T14:21:06;8.20;99.90
30648;DHT22;17683;53.360;9.736;2022-12-24T14:26:03;8.10;99.90
30648;DHT22;17683;53.360;9.736;2022-12-24T14:28:34;8.10;99.90
30648;DHT22;17683;53.360;9.736;2022-12-24T14:31:03;8.10;99.90
30648;DHT22;17683;53.360;9.736;2022-12-24T14:33:33;8.10;99.90
30648;DHT22;17683;53.360;9.736;2022-12-24T14:36:01;8.00;99.90
30648;DHT22;17683;53.360;9.736;2022-12-24T14:38:27;8.00;99.90
30648;DHT22;17683;53.360;9.736;2022-12-24T14:41:05;8.00;99.90
30648;DHT22;17683;53.360;9.736;2022-12-24T14:46:19;8.00;99.90
30648;DHT22;17683;53.360;9.736;2022-12-24T14:48:55;8.00;99.90
30648;DHT22;17683;53.360;9.736;2022-12-24T14:51:32;8.00;99.90
30648;DHT22;17683;53.360;9.736;2022-12-24T14:56:44;8.00;99.90
30648;DHT22;17683;53.360;9.736;2022-12-24T14:59:17;8.00;99.90
30648;DHT22;17683;53.360;9.736;2022-12-24T15:01:44;8.00;99.90
30648;DHT22;17683;53.360;9.736;2022-12-24T15:06:41;8.00;99.90
30648;DHT22;17683;53.360;9.736;2022-12-24T15:09:20;8.00;99.90
30648;DHT22;17683;53.360;9.736;2022-12-24T15:11:49;8.00;99.90
30648;DHT22;17683;53.360;9.736;2022-12-24T15:14:16;8.10;99.90
30648;DHT22;17683;53.360;9.736;2022-12-24T15:16:53;8.00;99.90
30648;DHT22;17683;53.360;9.736;2022-12-24T15:19:27;8.00;99.90
30648;DHT22;17683;53.360;9.736;2022-12-24T15:21:55;8.00;99.90
30648;DHT22;17683;53.360;9.736;2022-12-24T15:24:26;8.00;99.90
30648;DHT22;17683;53.360;9.736;2022-12-24T15:26:54;8.00;99.90
30648;DHT22;17683;53.360;9.736;2022-12-24T15:29:23;8.00;99.90
30648;DHT22;17683;53.360;9.736;2022-12-24T15:31:59;8.10;99.90
30648;DHT22;17683;53.360;9.736;2022-12-24T15:34:34;8.00;99.90
30648;DHT22;17683;53.360;9.736;2022-12-24T15:39:35;8.00;99.90
30648;DHT22;17683;53.360;9.736;2022-12-24T15:42:01;8.10;99.90
30648;DHT22;17683;53.360;9.736;2022-12-24T15:44:48;8.00;99.90
30648;DHT22;17683;53.360;9.736;2022-12-24T15:47:26;8.00;99.90
30648;DHT22;17683;53.360;9.736;2022-12-24T15:49:52;8.00;99.90
30648;DHT22;17683;53.360;9.736;2022-12-24T15:52:20;8.00;99.90
30648;DHT22;17683;53.360;9.736;2022-12-24T15:54:49;8.00;99.90
30648;DHT22;17683;53.360;9.736;2022-12-24T15:57:29;8.10;99.90
30648;DHT22;17683;53.360;9.736;2022-12-24T15:59:56;8.10;99.90
30648;DHT22;17683;53.360;9.736;2022-12-24T16:02:40;8.10;99.90
30648;DHT22;17683;53.360;9.736;2022-12-24T16:07:59;8.10;99.90
30648;DHT22;17683;53.360;9.736;2022-12-24T16:13:28;8.20;99.90
30648;DHT22;17683;53.360;9.736;2022-12-24T16:16:02;8.20;99.90
30648;DHT22;17683;53.360;9.736;2022-12-24T16:18:35;8.20;99.90
30648;DHT22;17683;53.360;9.736;2022-12-24T16:21:03;8.20;99.90
30648;DHT22;17683;53.360;9.736;2022-12-24T16:23:37;8.10;99.90
30648;DHT22;17683;53.360;9.736;2022-12-24T16:26:04;8.10;99.90
30648;DHT22;17683;53.360;9.736;2022-12-24T16:28:30;8.10;99.90
30648;DHT22;17683;53.360;9.736;2022-12-24T16:30:56;8.10;99.90
30648;DHT22;17683;53.360;9.736;2022-12-24T16:33:22;8.10;99.90
30648;DHT22;17683;53.360;9.736;2022-12-24T16:35:48;8.10;99.90
30648;DHT22;17683;53.360;9.736;2022-12-24T16:38:14;8.10;99.90
30648;DHT22;17683;53.360;9.736;2022-12-24T16:40:41;8.10;99.90
30648;DHT22;17683;53.360;9.736;2022-12-24T16:43:08;8.10;99.90
30648;DHT22;17683;53.360;9.736;2022-12-24T16:45:53;8.10;99.90
30648;DHT22;17683;53.360;9.736;2022-12-24T16:48:24;8.10;99.90
30648;DHT22;17683;53.360;9.736;2022-12-24T16:50:51;8.10;99.90
30648;DHT22;17683;53.360;9.736;2022-12-24T16:53:18;8.10;99.90
30648;DHT22;17683;53.360;9.736;2022-12-24T16:55:44;8.10;99.90
30648;DHT22;17683;53.360;9.736;2022-12-24T16:58:12;8.10;99.90
30648;DHT22;17683;53.360;9.736;2022-12-24T17:00:39;8.10;99.90
30648;DHT22;17683;53.360;9.736;2022-12-24T17:03:05;8.10;99.90
30648;DHT22;17683;53.360;9.736;2022-12-24T17:05:31;8.10;99.90
30648;DHT22;17683;53.360;9.736;2022-12-24T17:08:00;8.10;99.90
30648;DHT22;17683;53.360;9.736;2022-12-24T17:10:26;8.10;99.90
30648;DHT22;17683;53.360;9.736;2022-12-24T17:12:52;8.10;99.90
30648;DHT22;17683;53.360;9.736;2022-12-24T17:15:18;8.10;99.90
30648;DHT22;17683;53.360;9.736;2022-12-24T17:17:44;8.10;99.90
30648;DHT22;17683;53.360;9.736;2022-12-24T17:20:10;8.10;99.90
30648;DHT22;17683;53.360;9.736;2022-12-24T17:22:36;8.10;99.90
30648;DHT22;17683;53.360;9.736;2022-12-24T17:25:03;8.00;99.90
30648;DHT22;17683;53.360;9.736;2022-12-24T17:27:28;8.00;99.90
30648;DHT22;17683;53.360;9.736;2022-12-24T17:29:54;8.00;99.90
30648;DHT22;17683;53.360;9.736;2022-12-24T17:32:20;8.00;99.90
30648;DHT22;17683;53.360;9.736;2022-12-24T17:34:46;8.00;99.90
30648;DHT22;17683;53.360;9.736;2022-12-24T17:37:12;8.00;99.90
30648;DHT22;17683;53.360;9.736;2022-12-24T17:39:37;8.10;99.90
30648;DHT22;17683;53.360;9.736;2022-12-24T17:42:03;8.10;99.90
30648;DHT22;17683;53.360;9.736;2022-12-24T17:44:29;8.00;99.90
30648;DHT22;17683;53.360;9.736;2022-12-24T17:46:55;8.00;99.90
30648;DHT22;17683;53.360;9.736;2022-12-24T17:49:21;8.10;99.90